SULAYMANIYAH INTERNATIONAL AIRPORT
  • SulyAir
  • SulyAir
1 1
Arrival

ArrivalsMore >>

Departure

DeparturesMore >>

TAF

TAF ORSU 070500Z 0706/0806 13008KT 8000 SCT040 BKN180
'BECMG 0717/0719 24006KT 7000 NSC
TEMPO 0803/0806 04008KT=

METARs

METAR ORSU 070600Z 17010KT 9999 FEW045 SCT080 BKN200 21/09 Q1016=